createdAt,value
2024-01-03T00:00:29.523Z,9.60
2024-01-03T00:02:59.236Z,10.70
2024-01-03T00:05:38.203Z,8.60
2024-01-03T00:08:28.525Z,11.00
2024-01-03T00:10:56.534Z,12.70
2024-01-03T00:13:38.738Z,8.30
2024-01-03T00:16:13.918Z,10.20
2024-01-03T00:18:56.187Z,13.10
2024-01-03T00:21:26.000Z,11.10
2024-01-03T00:23:56.340Z,12.30
2024-01-03T00:26:23.747Z,11.30
2024-01-03T00:28:50.726Z,10.30
2024-01-03T00:31:43.908Z,12.50
2024-01-03T00:34:23.770Z,15.80
2024-01-03T00:36:51.741Z,8.50
2024-01-03T00:39:32.147Z,11.50
2024-01-03T00:42:00.091Z,9.00
2024-01-03T00:44:27.222Z,8.70
2024-01-03T00:46:54.441Z,6.70
2024-01-03T00:49:21.316Z,8.20
2024-01-03T00:51:49.143Z,6.30
2024-01-03T00:54:16.981Z,7.80
2024-01-03T00:56:44.509Z,6.40
2024-01-03T00:59:11.557Z,6.50
2024-01-03T01:01:38.440Z,6.20
2024-01-03T01:04:05.934Z,7.70
2024-01-03T01:06:33.323Z,5.20
2024-01-03T01:09:04.720Z,6.60
2024-01-03T01:11:32.001Z,4.40
2024-01-03T01:13:58.904Z,4.40
2024-01-03T01:16:25.672Z,5.20
2024-01-03T01:18:52.810Z,3.90
2024-01-03T01:21:19.607Z,4.40
2024-01-03T01:23:46.472Z,5.10
2024-01-03T01:26:13.387Z,4.90
2024-01-03T01:28:40.411Z,7.00
2024-01-03T01:31:08.974Z,4.60
2024-01-03T01:33:35.919Z,4.60
2024-01-03T01:36:02.817Z,4.80
2024-01-03T01:38:29.786Z,5.80
2024-01-03T01:40:56.573Z,6.70
2024-01-03T01:43:24.309Z,5.40
2024-01-03T01:45:51.106Z,5.20
2024-01-03T01:48:18.126Z,5.70
2024-01-03T01:50:45.937Z,4.50
2024-01-03T01:53:12.509Z,4.90
2024-01-03T01:55:40.113Z,4.20
2024-01-03T01:58:07.969Z,6.20
2024-01-03T02:00:35.807Z,4.80
2024-01-03T02:03:03.030Z,5.30
2024-01-03T02:05:29.993Z,7.70
2024-01-03T02:07:57.485Z,4.30
2024-01-03T02:10:24.286Z,6.20
2024-01-03T02:12:52.466Z,5.80
2024-01-03T02:15:19.063Z,5.00
2024-01-03T02:17:45.850Z,5.60
2024-01-03T02:20:15.674Z,3.80
2024-01-03T02:22:42.895Z,7.20
2024-01-03T02:25:11.447Z,5.10
2024-01-03T02:27:38.307Z,5.70
2024-01-03T02:30:06.810Z,4.80
2024-01-03T02:32:35.026Z,6.50
2024-01-03T02:35:01.653Z,4.60
2024-01-03T02:37:28.804Z,4.80
2024-01-03T02:39:55.880Z,4.50
2024-01-03T02:42:25.126Z,5.80
2024-01-03T02:44:52.776Z,7.40
2024-01-03T02:47:19.403Z,9.50
2024-01-03T02:49:46.379Z,5.50
2024-01-03T02:52:12.946Z,6.10
2024-01-03T02:54:39.708Z,5.40
2024-01-03T02:57:06.985Z,6.40
2024-01-03T02:59:34.280Z,6.70
2024-01-03T03:02:01.209Z,7.00
2024-01-03T03:04:28.117Z,9.20
2024-01-03T03:06:54.969Z,9.20
2024-01-03T03:09:22.321Z,6.50
2024-01-03T03:11:49.542Z,6.80
2024-01-03T03:14:16.224Z,7.30
2024-01-03T03:16:42.836Z,7.60
2024-01-03T03:19:09.744Z,7.80
2024-01-03T03:21:36.356Z,8.70
2024-01-03T03:24:04.441Z,9.90
2024-01-03T03:26:32.245Z,9.90
2024-01-03T03:28:59.044Z,6.20
2024-01-03T03:31:25.789Z,7.40
2024-01-03T03:33:52.888Z,6.90
2024-01-03T03:36:21.588Z,6.70
2024-01-03T03:38:49.429Z,7.30
2024-01-03T03:41:20.423Z,7.30
2024-01-03T03:43:47.416Z,10.50
2024-01-03T03:46:17.601Z,9.10
2024-01-03T03:48:45.126Z,8.80
2024-01-03T03:51:11.746Z,11.00
2024-01-03T03:53:38.810Z,9.20
2024-01-03T03:56:05.878Z,12.90
2024-01-03T03:58:32.609Z,8.00
2024-01-03T04:00:59.383Z,11.30
2024-01-03T04:03:26.126Z,12.60
2024-01-03T04:05:52.990Z,13.20
2024-01-03T04:08:19.794Z,9.90
2024-01-03T04:10:46.259Z,11.00
2024-01-03T04:13:13.042Z,11.80
2024-01-03T04:15:40.216Z,13.80
2024-01-03T04:18:07.420Z,11.50
2024-01-03T04:20:35.242Z,11.90
2024-01-03T04:23:02.165Z,12.20
2024-01-03T04:25:29.058Z,10.20
2024-01-03T04:27:55.825Z,11.10
2024-01-03T04:30:22.624Z,11.40
2024-01-03T04:32:49.727Z,10.50
2024-01-03T04:35:16.784Z,11.50
2024-01-03T04:37:43.596Z,12.70
2024-01-03T04:40:11.620Z,14.80
2024-01-03T04:42:38.529Z,15.20
2024-01-03T04:45:05.661Z,13.80
2024-01-03T04:47:34.753Z,11.40
2024-01-03T04:50:02.529Z,14.50
2024-01-03T04:52:29.481Z,14.50
2024-01-03T04:54:56.210Z,18.10
2024-01-03T04:57:23.214Z,13.50
2024-01-03T04:59:50.064Z,11.40
2024-01-03T05:02:16.836Z,14.50
2024-01-03T05:04:45.547Z,13.50
2024-01-03T05:07:13.478Z,15.30
2024-01-03T05:09:40.277Z,13.20
2024-01-03T05:12:07.251Z,14.10
2024-01-03T05:14:35.247Z,13.10
2024-01-03T05:17:01.797Z,13.50
2024-01-03T05:19:29.175Z,12.90
2024-01-03T05:21:56.052Z,12.80
2024-01-03T05:24:22.955Z,14.30
2024-01-03T05:26:50.396Z,13.90
2024-01-03T05:29:17.282Z,13.80
2024-01-03T05:31:44.566Z,13.90
2024-01-03T05:34:12.162Z,11.70
2024-01-03T05:36:39.653Z,14.70
2024-01-03T05:39:06.572Z,14.00
2024-01-03T05:41:33.370Z,13.30
2024-01-03T05:44:00.224Z,12.20
2024-01-03T05:46:27.527Z,13.40
2024-01-03T05:48:54.466Z,18.40
2024-01-03T05:51:21.626Z,13.60
2024-01-03T05:53:49.414Z,12.60
2024-01-03T05:56:16.537Z,11.70
2024-01-03T05:58:43.919Z,13.40
2024-01-03T06:01:10.855Z,13.00
2024-01-03T06:03:37.541Z,11.50
2024-01-03T06:06:05.772Z,11.20
2024-01-03T06:08:32.727Z,12.60
2024-01-03T06:10:59.717Z,13.30
2024-01-03T06:13:26.622Z,11.20
2024-01-03T06:15:53.631Z,14.30
2024-01-03T06:18:21.957Z,11.10
2024-01-03T06:20:49.579Z,12.80
2024-01-03T06:23:16.987Z,10.20
2024-01-03T06:25:44.104Z,12.20
2024-01-03T06:28:11.549Z,12.50
2024-01-03T06:30:38.550Z,13.00
2024-01-03T06:33:06.819Z,10.70
2024-01-03T06:35:34.568Z,12.90
2024-01-03T06:38:04.464Z,17.40
2024-01-03T06:40:32.438Z,13.10
2024-01-03T06:42:59.417Z,14.00
2024-01-03T06:45:26.553Z,13.40
2024-01-03T06:47:55.152Z,12.40
2024-01-03T06:50:22.187Z,12.10
2024-01-03T06:52:49.088Z,15.00
2024-01-03T06:55:15.873Z,13.70
2024-01-03T06:57:42.912Z,13.10
2024-01-03T07:00:10.645Z,13.90
2024-01-03T07:02:38.103Z,13.50
2024-01-03T07:05:05.711Z,12.00
2024-01-03T07:07:32.634Z,14.90
2024-01-03T07:09:59.424Z,12.40
2024-01-03T07:12:26.618Z,14.90
2024-01-03T07:14:53.110Z,12.50
2024-01-03T07:17:21.429Z,12.90
2024-01-03T07:19:48.599Z,15.30
2024-01-03T07:22:15.859Z,16.30
2024-01-03T07:24:42.903Z,13.00
2024-01-03T07:27:09.696Z,13.50
2024-01-03T07:29:36.543Z,12.60
2024-01-03T07:32:04.850Z,15.30
2024-01-03T07:34:32.047Z,13.50
2024-01-03T07:36:58.968Z,16.20
2024-01-03T07:39:25.806Z,13.00
2024-01-03T07:41:52.730Z,14.40
2024-01-03T07:44:19.695Z,14.80
2024-01-03T07:46:46.420Z,13.90
2024-01-03T07:49:13.815Z,24.80
2024-01-03T07:51:40.597Z,17.80
2024-01-03T07:54:10.043Z,16.60
2024-01-03T07:56:37.077Z,19.30
2024-01-03T07:59:04.018Z,28.10
2024-01-03T08:01:31.002Z,27.60
2024-01-03T08:03:58.143Z,25.00
2024-01-03T08:06:24.982Z,23.60
2024-01-03T08:08:51.812Z,21.30
2024-01-03T08:11:19.215Z,24.60
2024-01-03T08:13:46.398Z,32.90
2024-01-03T08:16:13.376Z,26.60
2024-01-03T08:18:43.821Z,24.90
2024-01-03T08:21:11.873Z,31.30
2024-01-03T08:23:38.703Z,29.80
2024-01-03T08:26:09.870Z,36.90
2024-01-03T08:28:38.210Z,31.50
2024-01-03T08:31:05.283Z,28.50
2024-01-03T08:33:36.656Z,23.20
2024-01-03T08:36:04.142Z,27.30
2024-01-03T08:38:31.697Z,26.50
2024-01-03T08:40:58.704Z,29.40
2024-01-03T08:43:26.057Z,32.60
2024-01-03T08:45:53.522Z,28.70
2024-01-03T08:48:21.272Z,35.60
2024-01-03T08:50:48.288Z,32.60
2024-01-03T08:53:15.322Z,30.00
2024-01-03T08:55:42.000Z,29.00
2024-01-03T08:58:10.137Z,28.30
2024-01-03T09:00:37.210Z,26.60
2024-01-03T09:03:05.014Z,27.80
2024-01-03T09:05:31.966Z,34.70
2024-01-03T09:07:59.583Z,27.10
2024-01-03T09:10:27.494Z,28.60
2024-01-03T09:12:54.321Z,29.20
2024-01-03T09:15:21.026Z,30.20
2024-01-03T09:17:48.770Z,25.50
2024-01-03T09:20:17.214Z,22.10
2024-01-03T09:22:45.014Z,26.20
2024-01-03T09:25:12.313Z,29.70
2024-01-03T09:27:39.702Z,29.40
2024-01-03T09:30:07.540Z,34.20
2024-01-03T09:32:35.991Z,30.70
2024-01-03T09:35:04.055Z,34.60
2024-01-03T09:37:32.070Z,26.30
2024-01-03T09:39:58.846Z,30.50
2024-01-03T09:42:25.944Z,28.70
2024-01-03T09:44:53.167Z,36.30
2024-01-03T09:47:21.186Z,29.70
2024-01-03T09:49:48.517Z,29.00
2024-01-03T09:52:15.491Z,27.90
2024-01-03T09:54:42.489Z,26.20
2024-01-03T09:57:10.370Z,24.10
2024-01-03T09:59:37.221Z,28.70
2024-01-03T10:02:06.164Z,25.60
2024-01-03T10:04:33.961Z,24.60
2024-01-03T10:08:24.299Z,29.50
2024-01-03T10:10:52.305Z,34.50
2024-01-03T10:13:20.648Z,31.50
2024-01-03T10:15:48.905Z,28.40
2024-01-03T10:18:20.691Z,30.40
2024-01-03T10:20:50.130Z,31.70
2024-01-03T10:23:19.808Z,37.70
2024-01-03T10:25:47.494Z,30.10
2024-01-03T10:28:18.408Z,39.00
2024-01-03T10:30:54.960Z,29.70
2024-01-03T10:33:24.305Z,30.20
2024-01-03T10:35:52.236Z,40.20
2024-01-03T10:38:22.163Z,36.10
2024-01-03T10:40:49.775Z,34.50
2024-01-03T10:43:17.701Z,35.50
2024-01-03T10:45:45.406Z,30.50
2024-01-03T10:48:13.086Z,30.10
2024-01-03T10:50:43.199Z,46.50
2024-01-03T10:53:10.867Z,30.40
2024-01-03T10:55:41.619Z,35.70
2024-01-03T10:58:14.645Z,36.30
2024-01-03T11:01:00.925Z,38.20
2024-01-03T11:03:44.769Z,36.10
2024-01-03T11:06:12.397Z,33.20
2024-01-03T11:08:45.682Z,32.60
2024-01-03T11:11:14.821Z,33.00
2024-01-03T11:13:42.241Z,31.70
2024-01-03T11:16:13.483Z,42.00
2024-01-03T11:18:41.978Z,38.60
2024-01-03T11:21:25.260Z,43.10
2024-01-03T11:23:53.914Z,26.90
2024-01-03T11:26:21.390Z,36.30
2024-01-03T11:28:51.887Z,35.80
2024-01-03T11:32:03.310Z,37.40
2024-01-03T11:34:40.330Z,36.90
2024-01-03T11:37:10.786Z,38.00
2024-01-03T11:39:47.205Z,39.40
2024-01-03T11:42:19.053Z,34.00
2024-01-03T11:44:46.964Z,33.90
2024-01-03T11:47:14.504Z,34.50
2024-01-03T11:49:42.280Z,34.00
2024-01-03T11:52:09.839Z,40.40
2024-01-03T11:54:37.295Z,35.70
2024-01-03T11:57:08.465Z,37.60
2024-01-03T11:59:37.364Z,35.10
2024-01-03T12:02:04.885Z,39.30
2024-01-03T12:04:32.876Z,36.00
2024-01-03T12:07:01.258Z,38.70
2024-01-03T12:09:31.037Z,41.10
2024-01-03T12:11:58.686Z,39.40
2024-01-03T12:14:26.708Z,42.30
2024-01-03T12:16:57.616Z,43.10
2024-01-03T12:19:28.517Z,44.00
2024-01-03T12:22:03.015Z,44.60
2024-01-03T12:27:11.359Z,42.30
2024-01-03T12:29:40.360Z,37.60
2024-01-03T12:32:19.116Z,36.10
2024-01-03T12:34:48.160Z,42.50
2024-01-03T12:37:16.206Z,33.80
2024-01-03T12:39:44.371Z,36.40
2024-01-03T12:42:11.976Z,34.70
2024-01-03T12:44:40.435Z,34.60
2024-01-03T12:47:10.379Z,34.80
2024-01-03T12:52:13.447Z,28.20
2024-01-03T12:54:40.414Z,32.80
2024-01-03T12:57:07.505Z,29.50
2024-01-03T12:59:38.560Z,23.70
2024-01-03T13:02:07.283Z,26.20
2024-01-03T13:04:34.728Z,31.40
2024-01-03T13:07:02.265Z,23.80
2024-01-03T13:09:29.775Z,28.50
2024-01-03T13:11:57.011Z,33.70
2024-01-03T13:14:24.202Z,27.20
2024-01-03T13:16:51.272Z,22.50
2024-01-03T13:19:18.585Z,25.40
2024-01-03T13:21:46.949Z,28.70
2024-01-03T13:24:14.520Z,25.10
2024-01-03T13:26:42.092Z,30.20
2024-01-03T13:29:08.779Z,28.50
2024-01-03T13:31:35.592Z,24.20
2024-01-03T13:34:02.632Z,20.50
2024-01-03T13:36:30.636Z,23.80
2024-01-03T13:38:57.386Z,20.90
2024-01-03T13:41:24.444Z,23.00
2024-01-03T13:43:52.712Z,25.00
2024-01-03T13:46:20.485Z,22.90
2024-01-03T13:48:47.119Z,22.10
2024-01-03T13:51:15.154Z,24.80
2024-01-03T13:53:43.835Z,31.40
2024-01-03T13:56:11.524Z,32.10
2024-01-03T13:58:38.610Z,30.30
2024-01-03T14:01:09.188Z,32.60
2024-01-03T14:03:35.862Z,30.70
2024-01-03T14:06:05.022Z,32.60
2024-01-03T14:08:32.452Z,40.30
2024-01-03T14:11:02.289Z,38.40
2024-01-03T14:13:29.382Z,29.30
2024-01-03T14:15:56.667Z,35.40
2024-01-03T14:18:23.937Z,30.90
2024-01-03T14:20:51.182Z,30.40
2024-01-03T14:23:20.861Z,30.60
2024-01-03T14:25:48.201Z,28.80
2024-01-03T14:28:19.547Z,29.50
2024-01-03T14:30:48.671Z,28.70
2024-01-03T14:33:16.533Z,35.50
2024-01-03T14:35:43.343Z,35.90
2024-01-03T14:38:10.532Z,33.70
2024-01-03T14:40:38.895Z,47.10
2024-01-03T14:43:21.016Z,37.70
2024-01-03T14:45:47.706Z,29.50
2024-01-03T14:48:15.899Z,42.90
2024-01-03T14:50:43.019Z,34.20
2024-01-03T14:53:10.730Z,37.70
2024-01-03T14:55:37.507Z,26.60
2024-01-03T14:58:04.361Z,35.00
2024-01-03T15:00:32.292Z,34.20
2024-01-03T15:03:07.278Z,36.40
2024-01-03T15:05:41.011Z,32.50
2024-01-03T15:08:11.177Z,41.90
2024-01-03T15:10:39.404Z,40.30
2024-01-03T15:13:06.852Z,38.00
2024-01-03T15:15:37.423Z,37.50
2024-01-03T15:18:10.587Z,32.30
2024-01-03T15:20:40.206Z,29.40
2024-01-03T15:23:08.842Z,30.50
2024-01-03T15:25:37.950Z,26.90
2024-01-03T15:28:05.720Z,28.60
2024-01-03T15:30:33.026Z,33.80
2024-01-03T15:33:00.034Z,32.10
2024-01-03T15:35:27.108Z,32.30
2024-01-03T15:37:54.559Z,36.90
2024-01-03T15:40:22.218Z,33.00
2024-01-03T15:42:48.903Z,38.20
2024-01-03T15:45:16.204Z,36.00
2024-01-03T15:47:43.868Z,40.50
2024-01-03T15:50:12.624Z,32.20
2024-01-03T15:52:41.355Z,32.70
2024-01-03T15:55:09.437Z,32.20
2024-01-03T15:57:37.216Z,34.80
2024-01-03T16:00:06.524Z,35.80
2024-01-03T16:02:34.412Z,33.70
2024-01-03T16:05:01.605Z,31.70
2024-01-03T16:07:29.423Z,35.20
2024-01-03T16:09:56.263Z,33.30
2024-01-03T16:12:23.591Z,34.80
2024-01-03T16:14:52.830Z,35.70
2024-01-03T16:17:20.333Z,37.60
2024-01-03T16:19:47.184Z,31.40
2024-01-03T16:22:14.878Z,36.20
2024-01-03T16:24:42.090Z,33.10
2024-01-03T16:27:09.228Z,36.40
2024-01-03T16:29:36.808Z,37.10
2024-01-03T16:32:07.265Z,35.60
2024-01-03T16:34:35.031Z,41.10
2024-01-03T16:37:12.219Z,44.40
2024-01-03T16:39:39.658Z,47.90
2024-01-03T16:42:08.654Z,43.60
2024-01-03T16:44:35.429Z,39.50
2024-01-03T16:47:02.163Z,33.20
2024-01-03T16:49:29.799Z,32.80
2024-01-03T16:51:58.012Z,36.30
2024-01-03T16:54:25.590Z,29.70
2024-01-03T16:56:55.015Z,28.70
2024-01-03T16:59:22.653Z,26.90
2024-01-03T17:01:49.444Z,26.50
2024-01-03T17:04:17.680Z,31.00
2024-01-03T17:06:44.875Z,31.40
2024-01-03T17:09:12.378Z,31.30
2024-01-03T17:11:39.745Z,42.20
2024-01-03T17:14:07.099Z,31.70
2024-01-03T17:16:37.005Z,27.00
2024-01-03T17:19:04.382Z,28.30
2024-01-03T17:21:32.688Z,27.80
2024-01-03T17:23:59.904Z,29.80
2024-01-03T17:26:26.869Z,28.40
2024-01-03T17:28:54.328Z,33.20
2024-01-03T17:31:21.432Z,30.00
2024-01-03T17:33:48.400Z,23.20
2024-01-03T17:36:15.495Z,29.70
2024-01-03T17:38:42.260Z,28.10
2024-01-03T17:41:11.459Z,27.40
2024-01-03T17:43:39.229Z,26.50
2024-01-03T17:46:06.655Z,26.50
2024-01-03T17:48:34.773Z,29.90
2024-01-03T17:51:03.775Z,27.80
2024-01-03T17:53:33.172Z,25.90
2024-01-03T17:55:59.933Z,24.60
2024-01-03T17:58:26.926Z,26.60
2024-01-03T18:00:53.897Z,26.10
2024-01-03T18:03:20.977Z,27.60
2024-01-03T18:05:48.119Z,25.40
2024-01-03T18:08:17.845Z,28.00
2024-01-03T18:10:45.801Z,29.00
2024-01-03T18:13:13.600Z,29.10
2024-01-03T18:15:40.551Z,27.60
2024-01-03T18:18:09.271Z,26.80
2024-01-03T18:20:36.602Z,28.10
2024-01-03T18:23:03.823Z,31.30
2024-01-03T18:25:30.449Z,28.00
2024-01-03T18:27:57.174Z,33.10
2024-01-03T18:30:24.720Z,24.50
2024-01-03T18:32:56.436Z,28.90
2024-01-03T18:35:23.357Z,29.20
2024-01-03T18:37:50.334Z,21.30
2024-01-03T18:40:16.956Z,25.30
2024-01-03T18:42:44.054Z,24.90
2024-01-03T18:45:10.994Z,20.30
2024-01-03T18:47:37.975Z,20.30
2024-01-03T18:50:05.524Z,21.70
2024-01-03T18:52:33.440Z,23.70
2024-01-03T18:55:01.464Z,19.60
2024-01-03T18:57:33.901Z,20.70
2024-01-03T19:00:00.773Z,18.60
2024-01-03T19:02:27.598Z,18.80
2024-01-03T19:04:54.382Z,20.50
2024-01-03T19:07:22.367Z,24.20
2024-01-03T19:09:49.915Z,23.00
2024-01-03T19:12:16.909Z,22.40
2024-01-03T19:14:44.166Z,18.30
2024-01-03T19:17:12.644Z,18.60
2024-01-03T19:19:39.870Z,18.40
2024-01-03T19:22:06.630Z,19.80
2024-01-03T19:24:33.783Z,19.80
2024-01-03T19:27:00.483Z,17.50
2024-01-03T19:29:27.897Z,20.90
2024-01-03T19:31:54.806Z,18.40
2024-01-03T19:34:23.172Z,20.60
2024-01-03T19:36:49.967Z,19.20
2024-01-03T19:39:18.526Z,18.50
2024-01-03T19:41:45.275Z,15.80
2024-01-03T19:44:14.283Z,20.20
2024-01-03T19:46:41.479Z,20.70
2024-01-03T19:49:11.881Z,18.40
2024-01-03T19:51:39.292Z,19.20
2024-01-03T19:54:08.916Z,22.30
2024-01-03T19:56:41.584Z,18.20
2024-01-03T19:59:11.137Z,23.10
2024-01-03T20:01:38.563Z,19.60
2024-01-03T20:04:05.304Z,21.60
2024-01-03T20:06:32.143Z,21.40
2024-01-03T20:08:58.789Z,22.00
2024-01-03T20:11:25.996Z,27.60
2024-01-03T20:13:52.702Z,22.40
2024-01-03T20:16:19.607Z,20.80
2024-01-03T20:18:46.350Z,19.40
2024-01-03T20:21:14.241Z,28.00
2024-01-03T20:23:43.187Z,28.50
2024-01-03T20:26:12.922Z,26.00
2024-01-03T20:28:45.719Z,21.70
2024-01-03T20:31:18.030Z,22.40
2024-01-03T20:33:44.838Z,25.70
2024-01-03T20:36:13.197Z,21.00
2024-01-03T20:38:39.952Z,23.50
2024-01-03T20:41:06.754Z,20.50
2024-01-03T20:43:37.348Z,22.80
2024-01-03T20:46:06.957Z,24.10
2024-01-03T20:48:35.496Z,20.90
2024-01-03T20:51:03.261Z,22.60
2024-01-03T20:53:32.322Z,24.50
2024-01-03T20:56:00.003Z,26.00
2024-01-03T20:58:27.277Z,22.40
2024-01-03T21:00:54.446Z,23.90
2024-01-03T21:03:22.160Z,20.80
2024-01-03T21:05:49.105Z,24.70
2024-01-03T21:08:15.738Z,28.30
2024-01-03T21:10:43.467Z,30.70
2024-01-03T21:13:11.274Z,29.50
2024-01-03T21:15:40.131Z,23.80
2024-01-03T21:18:07.431Z,26.40
2024-01-03T21:20:34.328Z,23.70
2024-01-03T21:23:01.071Z,25.10
2024-01-03T21:25:28.003Z,27.70
2024-01-03T21:27:54.811Z,23.10
2024-01-03T21:30:22.469Z,26.00
2024-01-03T21:32:50.128Z,30.50
2024-01-03T21:35:17.217Z,22.30
2024-01-03T21:37:44.619Z,31.70
2024-01-03T21:40:12.045Z,28.30
2024-01-03T21:42:41.069Z,25.90
2024-01-03T21:45:09.092Z,28.30
2024-01-03T21:47:40.960Z,32.40
2024-01-03T21:50:10.511Z,33.60
2024-01-03T21:52:37.913Z,29.90
2024-01-03T21:55:05.016Z,35.70
2024-01-03T21:57:32.117Z,29.50
2024-01-03T21:59:59.633Z,26.90
2024-01-03T22:02:27.825Z,29.20
2024-01-03T22:04:54.839Z,27.10
2024-01-03T22:07:21.658Z,29.40
2024-01-03T22:09:48.877Z,24.40
2024-01-03T22:12:15.775Z,24.00
2024-01-03T22:14:47.614Z,21.50
2024-01-03T22:17:14.866Z,17.50
2024-01-03T22:19:42.873Z,18.70
2024-01-03T22:22:09.469Z,15.80
2024-01-03T22:25:15.887Z,17.70
2024-01-03T22:27:45.127Z,15.70
2024-01-03T22:30:12.888Z,16.60
2024-01-03T22:32:40.759Z,15.90
2024-01-03T22:35:09.142Z,14.40
2024-01-03T22:37:36.498Z,15.20
2024-01-03T22:40:05.454Z,14.20
2024-01-03T22:42:36.879Z,11.90
2024-01-03T22:45:05.600Z,11.30
2024-01-03T22:47:33.350Z,8.80
2024-01-03T22:50:02.798Z,9.50
2024-01-03T22:52:30.699Z,9.40
2024-01-03T22:54:58.047Z,8.20
2024-01-03T22:57:25.518Z,8.60
2024-01-03T22:59:53.401Z,8.90
2024-01-03T23:02:20.721Z,9.20
2024-01-03T23:04:48.119Z,9.00
2024-01-03T23:07:16.912Z,9.80
2024-01-03T23:09:44.262Z,10.80
2024-01-03T23:12:11.963Z,9.90
2024-01-03T23:14:41.374Z,12.20
2024-01-03T23:17:17.788Z,9.60
2024-01-03T23:19:48.646Z,9.00
2024-01-03T23:22:17.352Z,10.00
2024-01-03T23:24:45.092Z,10.10
2024-01-03T23:27:12.538Z,10.00
2024-01-03T23:29:40.049Z,11.10
2024-01-03T23:32:07.424Z,14.00
2024-01-03T23:34:34.868Z,11.40
2024-01-03T23:37:02.609Z,8.70
2024-01-03T23:39:30.001Z,8.80
2024-01-03T23:41:57.343Z,10.60
2024-01-03T23:44:24.746Z,10.90
2024-01-03T23:46:52.139Z,12.70
2024-01-03T23:49:20.063Z,12.10
2024-01-03T23:51:47.679Z,14.40
2024-01-03T23:54:17.373Z,16.40
2024-01-03T23:56:45.310Z,16.20
2024-01-03T23:59:12.728Z,11.10
